createdAt,value
2018-07-23T00:00:24.820Z,18.88
2018-07-23T00:02:53.501Z,18.89
2018-07-23T00:05:21.665Z,18.92
2018-07-23T00:07:49.823Z,18.90
2018-07-23T00:10:18.057Z,18.88
2018-07-23T00:12:46.354Z,18.88
2018-07-23T00:15:15.485Z,18.84
2018-07-23T00:17:43.656Z,18.83
2018-07-23T00:20:11.860Z,18.83
2018-07-23T00:22:41.230Z,18.83
2018-07-23T00:25:09.493Z,18.84
2018-07-23T00:27:37.664Z,18.86
2018-07-23T00:30:06.679Z,18.83
2018-07-23T00:32:35.093Z,18.82
2018-07-23T00:35:04.229Z,18.82
2018-07-23T00:37:32.812Z,18.79
2018-07-23T00:40:01.273Z,18.76
2018-07-23T00:42:29.526Z,18.70
2018-07-23T00:44:57.693Z,18.71
2018-07-23T00:47:25.866Z,18.70
2018-07-23T00:49:54.070Z,18.70
2018-07-23T00:52:22.316Z,18.72
2018-07-23T00:54:50.769Z,18.78
2018-07-23T00:57:18.971Z,18.77
2018-07-23T00:59:53.890Z,18.83
2018-07-23T01:02:22.069Z,18.83
2018-07-23T01:04:51.377Z,18.81
2018-07-23T01:07:19.555Z,18.78
2018-07-23T01:09:47.832Z,18.74
2018-07-23T01:12:28.897Z,18.71
2018-07-23T01:14:57.129Z,18.69
2018-07-23T01:17:26.347Z,18.70
2018-07-23T01:19:56.440Z,18.74
2018-07-23T01:22:25.809Z,18.79
2018-07-23T01:24:55.870Z,18.80
2018-07-23T01:27:24.077Z,18.77
2018-07-23T01:29:52.246Z,18.75
2018-07-23T01:32:20.875Z,18.72
2018-07-23T01:34:49.334Z,18.70
2018-07-23T01:37:18.408Z,18.78
2018-07-23T01:39:46.607Z,18.75
2018-07-23T01:42:14.797Z,18.91
2018-07-23T01:44:42.978Z,18.83
2018-07-23T01:47:11.436Z,18.76
2018-07-23T01:49:40.078Z,18.69
2018-07-23T01:52:08.236Z,18.64
2018-07-23T01:54:36.453Z,18.64
2018-07-23T01:57:04.629Z,18.60
2018-07-23T01:59:32.792Z,18.60
2018-07-23T02:02:01.521Z,18.55
2018-07-23T02:04:30.137Z,18.49
2018-07-23T02:06:58.365Z,18.50
2018-07-23T02:09:26.828Z,18.54
2018-07-23T02:11:55.064Z,18.55
2018-07-23T02:14:23.258Z,18.61
2018-07-23T02:16:51.532Z,18.65
2018-07-23T02:19:20.138Z,18.63
2018-07-23T02:21:48.347Z,18.63
2018-07-23T02:24:16.580Z,18.63
2018-07-23T02:26:45.573Z,18.66
2018-07-23T02:29:14.283Z,18.69
2018-07-23T02:31:43.221Z,18.68
2018-07-23T02:34:11.389Z,18.67
2018-07-23T02:36:40.351Z,18.67
2018-07-23T02:39:10.771Z,18.68
2018-07-23T02:41:41.202Z,18.64
2018-07-23T02:44:09.377Z,18.62
2018-07-23T02:46:37.773Z,18.61
2018-07-23T02:49:06.015Z,18.60
2018-07-23T02:51:35.065Z,18.68
2018-07-23T02:54:03.999Z,18.77
2018-07-23T02:56:32.204Z,18.74
2018-07-23T02:59:00.436Z,18.71
2018-07-23T03:01:28.656Z,18.75
2018-07-23T03:03:57.241Z,18.94
2018-07-23T03:06:28.418Z,18.92
2018-07-23T03:08:57.690Z,18.74
2018-07-23T03:11:26.698Z,18.67
2018-07-23T03:13:55.312Z,18.62
2018-07-23T03:16:23.690Z,18.63
2018-07-23T03:18:51.991Z,18.59
2018-07-23T03:21:21.168Z,18.54
2018-07-23T03:23:49.371Z,18.54
2018-07-23T03:26:17.592Z,18.53
2018-07-23T03:28:47.269Z,18.56
2018-07-23T03:31:15.450Z,18.55
2018-07-23T03:33:43.632Z,18.56
2018-07-23T03:36:12.184Z,18.56
2018-07-23T03:38:40.354Z,18.55
2018-07-23T03:41:09.113Z,18.55
2018-07-23T03:43:37.567Z,18.55
2018-07-23T03:46:06.084Z,18.65
2018-07-23T03:48:35.187Z,18.63
2018-07-23T03:51:03.388Z,18.58
2018-07-23T03:53:31.590Z,18.59
2018-07-23T03:55:59.786Z,18.62
2018-07-23T03:58:28.008Z,18.73
2018-07-23T04:00:56.208Z,18.76
2018-07-23T04:03:25.082Z,18.72
2018-07-23T04:05:53.318Z,18.76
2018-07-23T04:08:21.602Z,18.77
2018-07-23T04:10:49.884Z,18.78
2018-07-23T04:13:18.450Z,18.82
2018-07-23T04:15:47.736Z,18.86
2018-07-23T04:18:16.229Z,18.92
2018-07-23T04:20:44.408Z,18.91
2018-07-23T04:23:12.922Z,18.94
2018-07-23T04:25:41.780Z,18.94
2018-07-23T04:28:09.996Z,18.99
2018-07-23T04:30:38.207Z,19.04
2018-07-23T04:33:06.996Z,19.06
2018-07-23T04:35:36.096Z,19.17
2018-07-23T04:38:04.333Z,19.18
2018-07-23T04:40:32.896Z,19.17
2018-07-23T04:43:02.668Z,19.07
2018-07-23T04:45:30.919Z,19.09
2018-07-23T04:48:00.047Z,19.09
2018-07-23T04:50:35.669Z,19.12
2018-07-23T04:53:04.880Z,19.26
2018-07-23T04:55:33.173Z,19.26
2018-07-23T04:58:01.603Z,19.45
2018-07-23T05:00:30.081Z,19.59
2018-07-23T05:02:58.643Z,19.72
2018-07-23T05:05:29.013Z,19.78
2018-07-23T05:07:57.267Z,19.77
2018-07-23T05:10:25.649Z,19.83
2018-07-23T05:12:53.896Z,19.91
2018-07-23T05:15:22.121Z,19.99
2018-07-23T05:17:50.984Z,20.05
2018-07-23T05:20:19.221Z,20.08
2018-07-23T05:22:47.744Z,20.07
2018-07-23T05:25:16.226Z,20.13
2018-07-23T05:27:44.521Z,20.04
2018-07-23T05:30:12.692Z,20.05
2018-07-23T05:32:41.328Z,20.17
2018-07-23T05:35:10.112Z,20.26
2018-07-23T05:37:38.692Z,20.24
2018-07-23T05:40:07.385Z,20.30
2018-07-23T05:42:36.202Z,20.42
2018-07-23T05:45:06.129Z,20.55
2018-07-23T05:47:34.574Z,20.57
2018-07-23T05:50:04.525Z,20.75
2018-07-23T05:52:33.076Z,20.73
2018-07-23T05:55:01.464Z,20.72
2018-07-23T05:57:29.762Z,20.82
2018-07-23T05:59:58.049Z,20.96
2018-07-23T06:02:27.772Z,20.93
2018-07-23T06:04:55.931Z,20.95
2018-07-23T06:07:24.198Z,20.91
2018-07-23T06:09:52.465Z,20.83
2018-07-23T06:12:20.897Z,20.86
2018-07-23T06:14:49.138Z,20.97
2018-07-23T06:17:17.348Z,20.98
2018-07-23T06:19:45.581Z,21.22
2018-07-23T06:22:14.087Z,21.39
2018-07-23T06:24:42.478Z,21.43
2018-07-23T06:27:10.943Z,21.41
2018-07-23T06:29:39.473Z,21.72
2018-07-23T06:32:08.331Z,21.73
2018-07-23T06:34:36.601Z,21.56
2018-07-23T06:37:04.838Z,21.75
2018-07-23T06:39:33.352Z,21.80
2018-07-23T06:42:02.032Z,21.91
2018-07-23T06:44:30.285Z,22.07
2018-07-23T06:46:58.914Z,22.02
2018-07-23T06:49:27.213Z,21.98
2018-07-23T06:51:55.585Z,22.15
2018-07-23T06:54:24.171Z,22.46
2018-07-23T06:56:52.425Z,22.45
2018-07-23T06:59:21.048Z,22.23
2018-07-23T07:01:49.233Z,22.22
2018-07-23T07:04:17.676Z,22.29
2018-07-23T07:06:46.071Z,22.30
2018-07-23T07:09:14.325Z,22.56
2018-07-23T07:11:42.746Z,22.62
2018-07-23T07:14:11.041Z,22.56
2018-07-23T07:16:39.605Z,22.47
2018-07-23T07:19:07.860Z,22.34
2018-07-23T07:21:36.321Z,22.31
2018-07-23T07:24:05.228Z,22.39
2018-07-23T07:26:33.808Z,22.35
2018-07-23T07:29:02.154Z,22.46
2018-07-23T07:31:30.935Z,22.50
2018-07-23T07:33:59.148Z,22.62
2018-07-23T07:36:27.561Z,22.78
2018-07-23T07:38:56.490Z,22.94
2018-07-23T07:41:25.005Z,22.90
2018-07-23T07:43:53.286Z,22.88
2018-07-23T07:46:21.879Z,23.03
2018-07-23T07:48:50.150Z,23.28
2018-07-23T07:51:18.402Z,23.16
2018-07-23T07:53:47.255Z,23.23
2018-07-23T07:56:15.470Z,23.17
2018-07-23T07:58:43.794Z,23.55
2018-07-23T08:01:12.513Z,23.42
2018-07-23T08:03:40.852Z,23.52
2018-07-23T08:06:09.587Z,23.88
2018-07-23T08:08:38.169Z,23.99
2018-07-23T08:11:06.840Z,23.87
2018-07-23T08:13:36.229Z,24.43
2018-07-23T08:16:04.739Z,24.89
2018-07-23T08:18:33.515Z,24.87
2018-07-23T08:21:02.849Z,25.00
2018-07-23T08:23:31.939Z,24.99
2018-07-23T08:26:00.539Z,24.93
2018-07-23T08:28:28.852Z,25.63
2018-07-23T08:30:57.107Z,25.99
2018-07-23T08:33:26.653Z,26.02
2018-07-23T08:35:54.864Z,25.78
2018-07-23T08:38:23.105Z,26.46
2018-07-23T08:40:51.537Z,26.00
2018-07-23T08:43:20.378Z,26.01
2018-07-23T08:45:49.566Z,26.32
2018-07-23T08:48:17.797Z,26.33
2018-07-23T08:50:46.688Z,27.09
2018-07-23T08:53:15.073Z,26.27
2018-07-23T08:55:43.324Z,26.14
2018-07-23T08:58:12.174Z,26.50
2018-07-23T09:00:41.052Z,26.22
2018-07-23T09:03:09.406Z,26.55
2018-07-23T09:05:38.114Z,26.43
2018-07-23T09:08:06.445Z,26.47
2018-07-23T09:10:34.618Z,26.20
2018-07-23T09:13:03.101Z,26.30
2018-07-23T09:15:31.792Z,26.66
2018-07-23T09:18:00.364Z,26.04
2018-07-23T09:20:28.808Z,25.98
2018-07-23T09:22:57.038Z,26.03
2018-07-23T09:25:31.051Z,26.02
2018-07-23T09:27:59.289Z,26.03
2018-07-23T09:30:33.483Z,26.46
2018-07-23T09:33:01.686Z,26.38
2018-07-23T09:35:30.063Z,26.52
2018-07-23T09:37:58.306Z,26.90
2018-07-23T09:40:26.514Z,26.98
2018-07-23T09:42:54.753Z,27.04
2018-07-23T09:45:23.701Z,27.20
2018-07-23T09:47:51.903Z,27.61
2018-07-23T09:50:21.642Z,28.06
2018-07-23T09:52:49.875Z,28.18
2018-07-23T09:55:18.098Z,28.33
2018-07-23T09:57:46.700Z,28.52
2018-07-23T10:00:19.569Z,28.07
2018-07-23T10:02:47.742Z,28.41
2018-07-23T10:05:16.243Z,28.37
2018-07-23T10:07:44.926Z,28.29
2018-07-23T10:10:13.134Z,28.75
2018-07-23T10:12:41.617Z,28.89
2018-07-23T10:15:09.834Z,28.28
2018-07-23T10:17:38.181Z,28.83
2018-07-23T10:20:06.458Z,28.67
2018-07-23T10:22:34.970Z,28.68
2018-07-23T10:25:03.616Z,28.60
2018-07-23T10:27:32.174Z,29.41
2018-07-23T10:30:00.535Z,29.96
2018-07-23T10:32:29.160Z,29.74
2018-07-23T10:34:57.857Z,29.82
2018-07-23T10:37:26.259Z,29.91
2018-07-23T10:39:54.479Z,29.13
2018-07-23T10:42:23.448Z,29.09
2018-07-23T10:44:53.466Z,29.04
2018-07-23T10:47:22.617Z,29.44
2018-07-23T10:49:51.437Z,29.81
2018-07-23T10:52:19.598Z,29.76
2018-07-23T10:54:47.814Z,29.42
2018-07-23T10:57:16.081Z,29.18
2018-07-23T10:59:44.712Z,30.25
2018-07-23T11:02:13.597Z,30.15
2018-07-23T11:04:42.166Z,29.63
2018-07-23T11:07:10.408Z,30.09
2018-07-23T11:09:39.203Z,29.97
2018-07-23T11:12:07.860Z,30.05
2018-07-23T11:14:36.169Z,30.05
2018-07-23T11:17:04.673Z,29.49
2018-07-23T11:19:32.901Z,29.96
2018-07-23T11:22:01.090Z,30.28
2018-07-23T11:24:29.426Z,29.68
2018-07-23T11:26:58.242Z,30.31
2018-07-23T11:29:27.103Z,30.36
2018-07-23T11:31:55.347Z,30.48
2018-07-23T11:34:23.880Z,31.35
2018-07-23T11:36:52.080Z,31.82
2018-07-23T11:39:20.301Z,31.32
2018-07-23T11:41:48.478Z,31.51
2018-07-23T11:44:16.767Z,31.30
2018-07-23T11:46:45.563Z,32.05
2018-07-23T11:49:13.756Z,32.13
2018-07-23T11:51:41.940Z,31.88
2018-07-23T11:54:10.861Z,31.25
2018-07-23T11:56:39.220Z,30.93
2018-07-23T11:59:07.781Z,31.16
2018-07-23T12:01:37.659Z,31.55
2018-07-23T12:04:10.406Z,31.99
2018-07-23T12:06:35.681Z,31.28
2018-07-23T12:09:07.381Z,31.28
2018-07-23T12:11:35.897Z,31.97
2018-07-23T12:14:06.132Z,32.17
2018-07-23T12:16:35.012Z,32.32
2018-07-23T12:19:07.084Z,32.57
2018-07-23T12:21:41.230Z,32.70
2018-07-23T12:24:10.873Z,32.02
2018-07-23T12:26:43.554Z,31.84
2018-07-23T12:29:19.140Z,32.50
2018-07-23T12:31:51.183Z,33.01
2018-07-23T12:34:30.907Z,32.19
2018-07-23T12:37:03.897Z,32.51
2018-07-23T12:39:37.106Z,33.04
2018-07-23T12:42:13.073Z,32.36
2018-07-23T12:44:42.393Z,31.91
2018-07-23T12:47:12.136Z,32.41
2018-07-23T12:49:41.860Z,32.75
2018-07-23T12:52:16.472Z,32.44
2018-07-23T12:54:54.980Z,33.09
2018-07-23T12:57:30.235Z,32.76
2018-07-23T13:00:04.328Z,32.89
2018-07-23T13:02:35.295Z,32.47
2018-07-23T13:05:11.332Z,32.66
2018-07-23T13:07:41.538Z,32.86
2018-07-23T13:10:10.084Z,32.37
2018-07-23T13:12:46.098Z,33.14
2018-07-23T13:15:21.217Z,33.09
2018-07-23T13:17:53.409Z,32.97
2018-07-23T13:20:22.211Z,33.23
2018-07-23T13:22:51.204Z,33.31
2018-07-23T13:25:19.594Z,34.28
2018-07-23T13:27:47.898Z,35.99
2018-07-23T13:30:19.599Z,36.11
2018-07-23T13:32:52.814Z,37.16
2018-07-23T13:35:22.781Z,37.82
2018-07-23T13:38:01.038Z,37.38
2018-07-23T13:40:49.878Z,38.60
2018-07-23T13:43:27.104Z,39.67
2018-07-23T13:46:01.869Z,39.73
2018-07-23T13:48:30.311Z,38.95
2018-07-23T13:50:58.841Z,39.18
2018-07-23T13:53:28.575Z,39.28
2018-07-23T13:56:06.007Z,39.60
2018-07-23T13:58:40.940Z,39.44
2018-07-23T14:01:18.695Z,38.69
2018-07-23T14:03:56.908Z,39.14
2018-07-23T14:06:37.970Z,38.13
2018-07-23T14:09:22.652Z,36.04
2018-07-23T14:12:04.835Z,35.46
2018-07-23T14:14:41.062Z,34.57
2018-07-23T14:17:26.736Z,37.61
2018-07-23T14:20:19.539Z,39.74
2018-07-23T14:22:56.614Z,41.96
2018-07-23T14:25:46.212Z,41.73
2018-07-23T14:28:36.824Z,42.63
2018-07-23T14:31:13.929Z,43.68
2018-07-23T14:33:59.293Z,42.31
2018-07-23T14:36:48.374Z,42.96
2018-07-23T14:39:30.342Z,42.82
2018-07-23T14:42:03.038Z,42.12
2018-07-23T14:44:34.783Z,41.82
2018-07-23T14:50:59.607Z,43.67
2018-07-23T14:53:31.060Z,43.60
2018-07-23T14:55:59.516Z,45.07
2018-07-23T14:58:27.655Z,44.56
2018-07-23T15:00:56.042Z,45.52
2018-07-23T15:03:24.274Z,45.23
2018-07-23T15:05:52.521Z,44.92
2018-07-23T15:08:21.796Z,45.58
2018-07-23T15:11:02.250Z,45.51
2018-07-23T15:13:36.162Z,44.13
2018-07-23T15:16:15.467Z,43.59
2018-07-23T15:18:43.865Z,44.31
2018-07-23T15:21:15.791Z,44.24
2018-07-23T15:23:45.898Z,42.83
2018-07-23T15:26:26.578Z,44.12
2018-07-23T15:29:01.204Z,44.99
2018-07-23T15:31:29.472Z,44.05
2018-07-23T15:33:57.661Z,43.79
2018-07-23T15:36:26.202Z,43.79
2018-07-23T15:38:55.371Z,42.83
2018-07-23T15:41:24.446Z,43.22
2018-07-23T15:43:53.548Z,43.89
2018-07-23T15:46:29.774Z,42.16
2018-07-23T15:49:08.272Z,42.25
2018-07-23T15:51:37.149Z,41.72
2018-07-23T15:54:05.840Z,41.76
2018-07-23T15:56:34.358Z,42.15
2018-07-23T15:59:02.766Z,41.17
2018-07-23T16:01:30.979Z,41.10
2018-07-23T16:03:59.562Z,41.43
2018-07-23T16:06:28.063Z,42.65
2018-07-23T16:08:56.421Z,42.82
2018-07-23T16:11:24.733Z,43.62
2018-07-23T16:13:53.147Z,43.57
2018-07-23T16:16:21.874Z,42.58
2018-07-23T16:18:51.457Z,41.43
2018-07-23T16:21:19.692Z,41.80
2018-07-23T16:23:48.574Z,42.47
2018-07-23T16:26:18.247Z,41.98
2018-07-23T16:28:46.474Z,40.71
2018-07-23T16:31:14.636Z,40.64
2018-07-23T16:33:43.188Z,40.74
2018-07-23T16:36:11.814Z,39.69
2018-07-23T16:38:40.460Z,40.35
2018-07-23T16:41:08.706Z,40.22
2018-07-23T16:43:37.256Z,39.59
2018-07-23T16:46:05.868Z,40.33
2018-07-23T16:48:36.985Z,39.10
2018-07-23T16:51:06.075Z,40.69
2018-07-23T16:53:36.399Z,39.91
2018-07-23T16:56:05.373Z,40.54
2018-07-23T16:58:36.629Z,39.73
2018-07-23T17:01:05.051Z,38.80
2018-07-23T17:03:40.634Z,39.42
2018-07-23T17:06:09.322Z,40.01
2018-07-23T17:08:42.230Z,39.32
2018-07-23T17:11:11.251Z,38.91
2018-07-23T17:13:40.432Z,39.56
2018-07-23T17:16:08.705Z,38.92
2018-07-23T17:18:38.357Z,39.13
2018-07-23T17:21:07.260Z,38.72
2018-07-23T17:23:35.672Z,37.66
2018-07-23T17:26:03.876Z,38.62
2018-07-23T17:28:32.083Z,37.42
2018-07-23T17:31:00.300Z,37.44
2018-07-23T17:33:28.770Z,37.59
2018-07-23T17:35:57.960Z,38.00
2018-07-23T17:38:26.572Z,37.58
2018-07-23T17:40:54.740Z,37.77
2018-07-23T17:43:23.342Z,37.14
2018-07-23T17:45:51.693Z,37.03
2018-07-23T17:48:20.353Z,37.08
2018-07-23T17:50:49.332Z,35.92
2018-07-23T17:53:17.430Z,35.80
2018-07-23T17:55:45.897Z,35.54
2018-07-23T17:58:14.464Z,35.20
2018-07-23T18:00:42.945Z,34.99
2018-07-23T18:03:11.712Z,33.82
2018-07-23T18:05:40.992Z,33.10
2018-07-23T18:08:09.379Z,32.11
2018-07-23T18:10:37.599Z,31.29
2018-07-23T18:13:06.120Z,30.88
2018-07-23T18:15:34.616Z,30.90
2018-07-23T18:18:04.002Z,30.45
2018-07-23T18:20:33.125Z,30.26
2018-07-23T18:23:01.650Z,29.86
2018-07-23T18:25:31.444Z,29.43
2018-07-23T18:28:01.571Z,29.55
2018-07-23T18:30:31.021Z,29.55
2018-07-23T18:32:59.322Z,29.30
2018-07-23T18:35:27.555Z,28.83
2018-07-23T18:37:56.309Z,28.89
2018-07-23T18:40:25.363Z,28.85
2018-07-23T18:42:53.886Z,28.80
2018-07-23T18:45:22.151Z,28.73
2018-07-23T18:47:50.690Z,28.39
2018-07-23T18:50:19.444Z,28.35
2018-07-23T18:52:47.704Z,28.18
2018-07-23T18:55:16.196Z,28.06
2018-07-23T18:57:44.535Z,27.93
2018-07-23T19:00:12.968Z,27.79
2018-07-23T19:02:41.599Z,27.61
2018-07-23T19:05:09.854Z,27.59
2018-07-23T19:07:38.386Z,27.28
2018-07-23T19:10:08.737Z,27.11
2018-07-23T19:12:37.764Z,27.03
2018-07-23T19:15:06.768Z,26.77
2018-07-23T19:17:36.934Z,26.50
2018-07-23T19:20:05.521Z,26.54
2018-07-23T19:22:37.028Z,26.68
2018-07-23T19:25:07.525Z,26.58
2018-07-23T19:27:38.219Z,26.23
2018-07-23T19:30:08.683Z,26.23
2018-07-23T19:32:37.233Z,26.15
2018-07-23T19:35:07.848Z,25.80
2018-07-23T19:37:36.067Z,25.62
2018-07-23T19:40:04.328Z,25.67
2018-07-23T19:42:32.692Z,25.59
2018-07-23T19:45:01.481Z,25.60
2018-07-23T19:47:30.099Z,25.74
2018-07-23T19:49:58.280Z,25.70
2018-07-23T19:52:26.496Z,25.73
2018-07-23T19:54:54.700Z,25.51
2018-07-23T19:57:24.705Z,25.48
2018-07-23T19:59:53.074Z,25.45
2018-07-23T20:02:21.521Z,25.26
2018-07-23T20:04:49.694Z,25.25
2018-07-23T20:07:20.370Z,25.32
2018-07-23T20:09:48.564Z,25.22
2018-07-23T20:12:18.148Z,25.01
2018-07-23T20:14:46.486Z,24.77
2018-07-23T20:17:15.572Z,24.71
2018-07-23T20:19:48.685Z,24.69
2018-07-23T20:22:18.135Z,24.61
2018-07-23T20:24:46.309Z,24.46
2018-07-23T20:27:15.706Z,24.26
2018-07-23T20:29:44.144Z,24.41
2018-07-23T20:32:12.793Z,24.51
2018-07-23T20:34:40.991Z,24.30
2018-07-23T20:37:09.510Z,24.25
2018-07-23T20:39:38.005Z,24.13
2018-07-23T20:42:06.284Z,24.15
2018-07-23T20:44:34.533Z,24.07
2018-07-23T20:47:03.829Z,24.11
2018-07-23T20:49:33.377Z,24.05
2018-07-23T20:52:02.615Z,23.87
2018-07-23T20:54:31.159Z,23.83
2018-07-23T20:57:01.847Z,23.73
2018-07-23T20:59:30.068Z,23.65
2018-07-23T21:01:58.541Z,23.68
2018-07-23T21:04:29.240Z,23.66
2018-07-23T21:06:57.340Z,23.65
2018-07-23T21:09:25.688Z,23.49
2018-07-23T21:11:54.200Z,23.55
2018-07-23T21:14:22.748Z,23.40
2018-07-23T21:16:51.001Z,23.32
2018-07-23T21:19:19.163Z,23.35
2018-07-23T21:21:48.115Z,23.37
2018-07-23T21:24:16.284Z,23.27
2018-07-23T21:26:44.541Z,23.20
2018-07-23T21:29:12.984Z,23.08
2018-07-23T21:31:41.883Z,23.00
2018-07-23T21:34:10.188Z,23.05
2018-07-23T21:36:39.471Z,23.01
2018-07-23T21:39:09.678Z,22.97
2018-07-23T21:41:39.360Z,22.94
2018-07-23T21:44:09.232Z,22.86
2018-07-23T21:46:37.405Z,22.91
2018-07-23T21:49:05.780Z,22.80
2018-07-23T21:51:34.845Z,22.73
2018-07-23T21:54:03.126Z,22.65
2018-07-23T21:56:31.876Z,22.61
2018-07-23T21:59:00.409Z,22.65
2018-07-23T22:01:28.914Z,22.48
2018-07-23T22:03:57.476Z,22.36
2018-07-23T22:06:25.955Z,22.25
2018-07-23T22:08:55.483Z,22.15
2018-07-23T22:11:23.681Z,22.09
2018-07-23T22:13:51.924Z,22.09
2018-07-23T22:16:20.193Z,22.08
2018-07-23T22:18:48.444Z,22.06
2018-07-23T22:21:16.648Z,21.98
2018-07-23T22:23:44.878Z,22.01
2018-07-23T22:26:13.695Z,21.97
2018-07-23T22:28:42.516Z,21.84
2018-07-23T22:31:10.615Z,21.77
2018-07-23T22:33:39.525Z,21.77
2018-07-23T22:36:07.740Z,21.72
2018-07-23T22:38:36.864Z,21.72
2018-07-23T22:41:05.144Z,21.81
2018-07-23T22:43:35.303Z,21.78
2018-07-23T22:46:04.384Z,21.77
2018-07-23T22:48:33.147Z,21.84
2018-07-23T22:51:01.941Z,21.82
2018-07-23T22:53:30.502Z,21.84
2018-07-23T22:55:58.856Z,21.77
2018-07-23T22:58:27.229Z,21.64
2018-07-23T23:00:55.756Z,21.54
2018-07-23T23:03:23.987Z,21.51
2018-07-23T23:05:52.227Z,21.48
2018-07-23T23:08:20.915Z,21.35
2018-07-23T23:10:50.375Z,21.27
2018-07-23T23:13:19.339Z,21.18
2018-07-23T23:15:47.586Z,21.10
2018-07-23T23:18:15.793Z,21.06
2018-07-23T23:20:44.529Z,21.03
2018-07-23T23:23:12.699Z,20.97
2018-07-23T23:25:40.877Z,20.95
2018-07-23T23:28:09.076Z,20.91
2018-07-23T23:30:37.253Z,20.90
2018-07-23T23:33:05.771Z,21.01
2018-07-23T23:35:34.040Z,20.98
2018-07-23T23:38:02.229Z,20.98
2018-07-23T23:40:30.719Z,20.91
2018-07-23T23:42:58.919Z,20.87
2018-07-23T23:45:27.140Z,20.83
2018-07-23T23:47:55.944Z,20.78
2018-07-23T23:50:24.079Z,20.74
2018-07-23T23:52:52.749Z,20.70
2018-07-23T23:55:21.196Z,20.68
2018-07-23T23:57:49.711Z,20.64
